createdAt,value
2023-07-29T00:00:13.665Z,100211.43
2023-07-29T00:01:19.977Z,100210.91
2023-07-29T00:02:25.694Z,100209.85
2023-07-29T00:03:31.577Z,100209.64
2023-07-29T00:04:37.599Z,100203.94
2023-07-29T00:05:43.199Z,100204.97
2023-07-29T00:06:48.864Z,100206.75
2023-07-29T00:07:54.509Z,100208.51
2023-07-29T00:09:00.075Z,100205.67
2023-07-29T00:10:05.659Z,100213.89
2023-07-29T00:11:11.249Z,100206.2
2023-07-29T00:12:16.872Z,100207.78
2023-07-29T00:13:24.027Z,100212.22
2023-07-29T00:14:29.636Z,100205.09
2023-07-29T00:15:35.275Z,100208.59
2023-07-29T00:16:41.468Z,100209.44
2023-07-29T00:17:47.295Z,100210.56
2023-07-29T00:18:52.995Z,100204.23
2023-07-29T00:19:58.609Z,100211.38
2023-07-29T00:21:04.314Z,100208.27
2023-07-29T00:22:09.975Z,100199.38
2023-07-29T00:23:15.617Z,100207.55
2023-07-29T00:24:21.314Z,100207.02
2023-07-29T00:25:27.088Z,100202.57
2023-07-29T00:26:32.709Z,100203.83
2023-07-29T00:27:38.950Z,100201.22
2023-07-29T00:28:44.639Z,100205.17
2023-07-29T00:29:50.255Z,100205.35
2023-07-29T00:30:55.930Z,100205.03
2023-07-29T00:32:01.784Z,100212.08
2023-07-29T00:33:07.520Z,100209.39
2023-07-29T00:34:13.225Z,100221.5
2023-07-29T00:35:18.778Z,100215.22
2023-07-29T00:36:24.342Z,100210.33
2023-07-29T00:37:29.937Z,100212.7
2023-07-29T00:38:35.595Z,100208.66
2023-07-29T00:39:41.225Z,100208.75
2023-07-29T00:40:46.856Z,100217.67
2023-07-29T00:41:52.527Z,100213.23
2023-07-29T00:42:58.221Z,100211.88
2023-07-29T00:44:03.879Z,100219.64
2023-07-29T00:45:09.607Z,100209.77
2023-07-29T00:46:15.289Z,100220.05
2023-07-29T00:47:21.044Z,100218.7
2023-07-29T00:48:27.183Z,100215.07
2023-07-29T00:49:33.029Z,100210.8
2023-07-29T00:50:38.602Z,100214.13
2023-07-29T00:51:44.201Z,100217.44
2023-07-29T00:52:49.764Z,100215.59
2023-07-29T00:53:55.390Z,100215.69
2023-07-29T00:55:00.987Z,100214.43
2023-07-29T00:56:06.565Z,100212.27
2023-07-29T00:57:12.225Z,100216.3
2023-07-29T00:58:17.744Z,100213.61
2023-07-29T00:59:23.343Z,100219.9
2023-07-29T01:00:28.982Z,100213.7
2023-07-29T01:01:34.606Z,100221.86
2023-07-29T01:02:40.380Z,100211.94
2023-07-29T01:03:46.170Z,100219.49
2023-07-29T01:04:51.960Z,100213.78
2023-07-29T01:05:57.621Z,100213.29
2023-07-29T01:07:03.291Z,100207.38
2023-07-29T01:08:08.907Z,100206.03
2023-07-29T01:09:14.550Z,100209.25
2023-07-29T01:10:20.158Z,100211.41
2023-07-29T01:11:25.790Z,100218.23
2023-07-29T01:12:31.389Z,100212.03
2023-07-29T01:13:37.155Z,100217.5
2023-07-29T01:14:42.787Z,100214.81
2023-07-29T01:15:48.557Z,100206.86
2023-07-29T01:16:54.181Z,100207.27
2023-07-29T01:17:59.855Z,100209.64
2023-07-29T01:19:05.484Z,100208.78
2023-07-29T01:20:11.218Z,100210.57
2023-07-29T01:21:16.873Z,100208.78
2023-07-29T01:22:22.504Z,100210.25
2023-07-29T01:23:28.167Z,100206.63
2023-07-29T01:24:33.732Z,100210.66
2023-07-29T01:25:39.343Z,100211.59
2023-07-29T01:26:44.980Z,100218
2023-07-29T01:27:50.593Z,100210.75
2023-07-29T01:28:56.194Z,100209.61
2023-07-29T01:30:01.823Z,100202.76
2023-07-29T01:31:07.479Z,100208.47
2023-07-29T01:32:13.209Z,100209.61
2023-07-29T01:33:18.823Z,100201.94
2023-07-29T01:34:24.618Z,100203.7
2023-07-29T01:35:30.216Z,100202.76
2023-07-29T01:36:36.407Z,100195.21
2023-07-29T01:37:42.548Z,100205.98
2023-07-29T01:38:48.262Z,100207
2023-07-29T01:39:53.832Z,100204.4
2023-07-29T01:40:59.418Z,100208.14
2023-07-29T01:42:05.061Z,100207.73
2023-07-29T01:43:10.687Z,100205.05
2023-07-29T01:44:16.285Z,100206.92
2023-07-29T01:45:21.851Z,100202.97
2023-07-29T01:46:27.464Z,100203.58
2023-07-29T01:47:33.137Z,100201.3
2023-07-29T01:48:38.916Z,100210.41
2023-07-29T01:49:44.553Z,100206.45
2023-07-29T01:50:50.179Z,100217.36
2023-07-29T01:51:55.698Z,100200.57
2023-07-29T01:53:01.260Z,100207.7
2023-07-29T01:54:06.831Z,100207.8
2023-07-29T01:55:12.468Z,100206.05
2023-07-29T01:56:18.123Z,100206.54
2023-07-29T01:57:23.727Z,100205.83
2023-07-29T01:58:29.307Z,100201.8
2023-07-29T01:59:35.279Z,100209.38
2023-07-29T02:00:40.919Z,100208.84
2023-07-29T02:01:46.480Z,100206.36
2023-07-29T02:02:52.165Z,100204.93
2023-07-29T02:03:58.472Z,100209.17
2023-07-29T02:05:04.041Z,100205.66
2023-07-29T02:06:09.614Z,100211.86
2023-07-29T02:07:15.222Z,100210.95
2023-07-29T02:08:20.735Z,100211.36
2023-07-29T02:09:26.297Z,100207.82
2023-07-29T02:10:31.967Z,100207.82
2023-07-29T02:11:37.561Z,100210.95
2023-07-29T02:12:43.117Z,100209.49
2023-07-29T02:13:48.670Z,100206.7
2023-07-29T02:14:54.244Z,100208.27
2023-07-29T02:15:59.825Z,100209.49
2023-07-29T02:17:05.564Z,100204.23
2023-07-29T02:18:11.230Z,100204.23
2023-07-29T02:19:16.937Z,100207.82
2023-07-29T02:20:22.504Z,100201.94
2023-07-29T02:21:28.273Z,100210.95
2023-07-29T02:22:35.105Z,100209.7
2023-07-29T02:23:40.646Z,100210.52
2023-07-29T02:24:46.252Z,100212.16
2023-07-29T02:25:51.807Z,100214.03
2023-07-29T02:26:57.356Z,100211.02
2023-07-29T02:28:03.155Z,100208.82
2023-07-29T02:29:08.792Z,100200.42
2023-07-29T02:30:14.490Z,100207.56
2023-07-29T02:31:20.309Z,100203.97
2023-07-29T02:32:26.292Z,100207.06
2023-07-29T02:33:32.467Z,100200.42
2023-07-29T02:34:38.450Z,100206.75
2023-07-29T02:35:44.045Z,100205.81
2023-07-29T02:36:49.745Z,100204.05
2023-07-29T02:37:55.412Z,100204.47
2023-07-29T02:39:01.026Z,100199.16
2023-07-29T02:40:06.755Z,100204.55
2023-07-29T02:41:12.503Z,100202.48
2023-07-29T02:42:18.526Z,100195.12
2023-07-29T02:43:24.383Z,100198.34
2023-07-29T02:44:30.154Z,100198.03
2023-07-29T02:45:35.830Z,100200.8
2023-07-29T02:46:42.208Z,100204.23
2023-07-29T02:47:48.108Z,100207.36
2023-07-29T02:48:54.036Z,100205.16
2023-07-29T02:49:59.757Z,100206.19
2023-07-29T02:51:05.536Z,100206.6
2023-07-29T02:52:11.370Z,100208.39
2023-07-29T02:53:17.051Z,100212.83
2023-07-29T02:54:22.753Z,100210.64
2023-07-29T02:55:28.373Z,100210.46
2023-07-29T02:56:34.257Z,100217.6
2023-07-29T02:57:40.511Z,100224.66
2023-07-29T02:58:46.166Z,100221.14
2023-07-29T02:59:51.819Z,100210.37
2023-07-29T03:00:57.521Z,100219.68
2023-07-29T03:02:03.167Z,100220.2
2023-07-29T03:03:08.981Z,100220.2
2023-07-29T03:04:14.743Z,100223.84
2023-07-29T03:05:20.416Z,100222.58
2023-07-29T03:06:26.090Z,100222.66
2023-07-29T03:07:31.751Z,100228.98
2023-07-29T03:08:37.448Z,100235.09
2023-07-29T03:09:43.357Z,100233.34
2023-07-29T03:10:49.077Z,100240.89
2023-07-29T03:11:54.765Z,100237.15
2023-07-29T03:13:02.214Z,100241.83
2023-07-29T03:14:17.871Z,100232.08
2023-07-29T03:41:16.354Z,100238.17
2023-07-29T03:42:21.997Z,100236.73
2023-07-29T03:43:27.619Z,100239.52
2023-07-29T03:44:33.233Z,100239.11
2023-07-29T03:45:39.025Z,100240.69
2023-07-29T03:46:44.860Z,100241.19
2023-07-29T03:47:50.654Z,100238.49
2023-07-29T03:48:56.387Z,100239.92
2023-07-29T03:50:02.015Z,100239.11
2023-07-29T03:51:07.650Z,100239.92
2023-07-29T03:52:13.296Z,100241.5
2023-07-29T03:53:18.874Z,100240.77
2023-07-29T03:54:24.577Z,100247.5
2023-07-29T03:55:30.234Z,100251.54
2023-07-29T03:56:36.592Z,100246.25
2023-07-29T03:57:42.950Z,100255.98
2023-07-29T03:58:48.606Z,100254.23
2023-07-29T03:59:54.258Z,100256.84
2023-07-29T04:00:59.931Z,100255.05
2023-07-29T04:02:05.665Z,100255.49
2023-07-29T04:03:11.309Z,100259.73
2023-07-29T04:04:17.180Z,100255.81
2023-07-29T04:05:23.010Z,100249.55
2023-07-29T04:06:28.750Z,100254.03
2023-07-29T04:07:34.453Z,100248.23
2023-07-29T04:08:40.185Z,100258.51
2023-07-29T04:09:45.930Z,100258.59
2023-07-29T04:10:51.671Z,100257.66
2023-07-29T04:11:57.499Z,100253.63
2023-07-29T04:13:03.242Z,100255.58
2023-07-29T04:14:08.991Z,100259.09
2023-07-29T04:15:14.724Z,100250.69
2023-07-29T04:16:20.824Z,100257.25
2023-07-29T04:17:26.648Z,100263.13
2023-07-29T04:18:32.549Z,100265.33
2023-07-29T04:19:38.382Z,100257.25
2023-07-29T04:20:44.303Z,100265.82
2023-07-29T04:21:50.230Z,100269.45
2023-07-29T04:22:56.027Z,100270.3
2023-07-29T04:24:02.010Z,100265.94
2023-07-29T04:25:07.973Z,100263.25
2023-07-29T04:26:13.846Z,100261.37
2023-07-29T04:27:19.761Z,100266.44
2023-07-29T04:28:25.937Z,100257.02
2023-07-29T04:29:31.868Z,100258.16
2023-07-29T04:30:37.702Z,100263.74
2023-07-29T04:31:43.806Z,100265.61
2023-07-29T04:32:49.890Z,100266.44
2023-07-29T04:33:55.864Z,100265.7
2023-07-29T04:35:01.728Z,100262.39
2023-07-29T04:36:07.562Z,100266.84
2023-07-29T04:37:13.386Z,100263.01
2023-07-29T04:38:19.199Z,100262.19
2023-07-29T04:39:25.039Z,100259.59
2023-07-29T04:40:31.808Z,100256.98
2023-07-29T04:41:38.584Z,100258.16
2023-07-29T04:42:45.003Z,100261.75
2023-07-29T04:43:51.784Z,100254.53
2023-07-29T04:44:59.064Z,100258.36
2023-07-29T04:46:05.287Z,100260.64
2023-07-29T04:47:11.677Z,100260.31
2023-07-29T04:48:18.639Z,100262.48
2023-07-29T04:49:25.583Z,100263.33
2023-07-29T04:50:32.083Z,100262.92
2023-07-29T04:51:39.437Z,100267.05
2023-07-29T04:52:46.683Z,100256.69
2023-07-29T04:53:52.610Z,100254.41
2023-07-29T04:54:58.427Z,100254.84
2023-07-29T04:56:04.222Z,100252.56
2023-07-29T04:57:10.040Z,100254.94
2023-07-29T04:58:15.810Z,100257.95
2023-07-29T04:59:21.749Z,100254.41
2023-07-29T05:00:27.668Z,100257.74
2023-07-29T05:01:33.602Z,100254.32
2023-07-29T05:02:39.491Z,100250.43
2023-07-29T05:03:45.456Z,100254.03
2023-07-29T05:04:51.327Z,100250.52
2023-07-29T05:05:57.265Z,100246.98
2023-07-29T05:07:03.110Z,100250.28
2023-07-29T05:08:08.954Z,100251.45
2023-07-29T05:09:14.796Z,100249.67
2023-07-29T05:10:20.720Z,100253.63
2023-07-29T05:11:27.684Z,100250.92
2023-07-29T05:12:33.701Z,100248.06
2023-07-29T05:13:39.870Z,100256.63
2023-07-29T05:14:45.806Z,100259.16
2023-07-29T05:15:51.895Z,100256.87
2023-07-29T05:16:57.857Z,100250.14
2023-07-29T05:18:03.828Z,100251.08
2023-07-29T05:19:09.769Z,100253.23
2023-07-29T05:20:15.755Z,100251.48
2023-07-29T05:21:21.553Z,100254.17
2023-07-29T05:22:27.360Z,100256.34
2023-07-29T05:23:33.241Z,100251.48
2023-07-29T05:24:39.028Z,100248.38
2023-07-29T05:25:45.372Z,100252.83
2023-07-29T05:26:51.284Z,100253.77
2023-07-29T05:27:57.263Z,100249.11
2023-07-29T05:29:03.111Z,100255
2023-07-29T05:30:09.153Z,100258.13
2023-07-29T05:31:14.990Z,100259.97
2023-07-29T05:32:20.882Z,100259.8
2023-07-29T05:33:26.920Z,100255.31
2023-07-29T05:34:33.045Z,100263.54
2023-07-29T05:35:38.961Z,100262.52
2023-07-29T05:36:44.941Z,100260.32
2023-07-29T05:37:50.849Z,100261.78
2023-07-29T05:38:56.777Z,100257.3
2023-07-29T05:40:02.756Z,100264.27
2023-07-29T05:41:08.708Z,100260.94
2023-07-29T05:42:14.798Z,100255.55
2023-07-29T05:43:20.883Z,100262.19
2023-07-29T05:44:26.795Z,100261.66
2023-07-29T05:45:32.710Z,100256.4
2023-07-29T05:46:39.552Z,100258.89
2023-07-29T05:47:46.246Z,100262.92
2023-07-29T05:48:52.147Z,100264.68
2023-07-29T05:49:58.817Z,100253.7
2023-07-29T05:51:07.679Z,100260.14
2023-07-29T05:52:13.663Z,100267.2
2023-07-29T05:53:19.596Z,100255.08
2023-07-29T05:54:25.561Z,100261.61
2023-07-29T05:55:31.592Z,100262.05
2023-07-29T05:56:38.181Z,100259.77
2023-07-29T05:57:46.110Z,100267.23
2023-07-29T05:58:52.638Z,100264.53
2023-07-29T05:59:58.778Z,100261.2
2023-07-29T06:01:04.860Z,100264.53
2023-07-29T06:02:11.131Z,100270.33
2023-07-29T06:03:17.860Z,100266.52
2023-07-29T06:04:24.477Z,100269.62
2023-07-29T06:05:30.846Z,100271.05
2023-07-29T06:06:37.522Z,100265.67
2023-07-29T06:07:43.876Z,100264.21
2023-07-29T06:08:49.907Z,100272.41
2023-07-29T06:09:56.096Z,100273.95
2023-07-29T06:11:02.189Z,100274.39
2023-07-29T06:12:08.358Z,100273.38
2023-07-29T06:13:14.486Z,100271.84
2023-07-29T06:14:20.453Z,100277.73
2023-07-29T06:15:26.727Z,100280.57
2023-07-29T06:16:32.795Z,100279.63
2023-07-29T06:17:38.886Z,100279.14
2023-07-29T06:18:45.001Z,100282.23
2023-07-29T06:19:51.125Z,100282.23
2023-07-29T06:20:57.970Z,100279.86
2023-07-29T06:22:03.963Z,100275.83
2023-07-29T06:23:09.934Z,100269.91
2023-07-29T06:24:15.983Z,100265.47
2023-07-29T06:25:21.919Z,100275.44
2023-07-29T06:26:28.014Z,100275.53
2023-07-29T06:27:34.021Z,100272.22
2023-07-29T06:28:40.219Z,100272.75
2023-07-29T06:29:46.293Z,100270.38
2023-07-29T06:30:52.493Z,100272.45
2023-07-29T06:31:58.516Z,100263.23
2023-07-29T06:33:04.722Z,100263.76
2023-07-29T06:34:10.989Z,100265.11
2023-07-29T06:35:17.020Z,100270.81
2023-07-29T06:36:23.216Z,100261.06
2023-07-29T06:37:29.530Z,100262.83
2023-07-29T06:38:35.289Z,100269.29
2023-07-29T06:39:40.858Z,100259.75
2023-07-29T06:40:46.552Z,100262.88
2023-07-29T06:41:52.141Z,100264.63
2023-07-29T06:42:57.745Z,100265.58
2023-07-29T06:44:03.330Z,100262.67
2023-07-29T06:45:08.979Z,100259.89
2023-07-29T06:46:14.654Z,100265.36
2023-07-29T06:47:20.374Z,100265.59
2023-07-29T06:48:26.076Z,100271.39
2023-07-29T06:49:31.632Z,100267.91
2023-07-29T06:50:37.265Z,100261.67
2023-07-29T06:51:42.872Z,100262.75
2023-07-29T06:52:48.643Z,100263.39
2023-07-29T06:53:54.251Z,100263.57
2023-07-29T06:54:59.923Z,100264.19
2023-07-29T06:56:05.728Z,100261.09
2023-07-29T06:57:11.386Z,100252.09
2023-07-29T06:58:16.965Z,100258.5
2023-07-29T06:59:22.587Z,100249.16
2023-07-29T07:00:28.352Z,100250.63
2023-07-29T07:01:34.005Z,100250.83
2023-07-29T07:02:39.832Z,100252.34
2023-07-29T07:03:45.714Z,100247.55
2023-07-29T07:04:51.414Z,100239.22
2023-07-29T07:05:57.079Z,100238.98
2023-07-29T07:07:02.749Z,100238.92
2023-07-29T07:08:08.375Z,100240.67
2023-07-29T07:09:14.053Z,100239.86
2023-07-29T07:10:19.669Z,100237
2023-07-29T07:11:25.273Z,100239.52
2023-07-29T07:12:30.924Z,100233.77
2023-07-29T07:13:36.498Z,100231.08
2023-07-29T07:14:42.159Z,100236.84
2023-07-29T07:15:47.762Z,100234.15
2023-07-29T07:16:53.552Z,100231.66
2023-07-29T07:17:59.239Z,100229.88
2023-07-29T07:19:04.993Z,100236.08
2023-07-29T07:20:10.592Z,100235.35
2023-07-29T07:21:16.280Z,100232.28
2023-07-29T07:22:21.902Z,100237.58
2023-07-29T07:23:27.497Z,100234.33
2023-07-29T07:24:33.090Z,100235.52
2023-07-29T07:25:38.737Z,100223.02
2023-07-29T07:26:44.351Z,100236.02
2023-07-29T07:27:50.033Z,100230.34
2023-07-29T07:28:55.677Z,100236.47
2023-07-29T07:30:01.334Z,100237.2
2023-07-29T07:31:06.948Z,100228.59
2023-07-29T07:32:12.699Z,100226.02
2023-07-29T07:33:18.287Z,100228.51
2023-07-29T07:34:24.050Z,100227.78
2023-07-29T07:35:29.645Z,100230.5
2023-07-29T07:36:35.507Z,100224.06
2023-07-29T07:37:41.670Z,100224.47
2023-07-29T07:38:47.309Z,100223.62
2023-07-29T07:39:52.919Z,100225.49
2023-07-29T07:40:58.622Z,100221.13
2023-07-29T07:42:04.297Z,100233.05
2023-07-29T07:43:09.923Z,100231.47
2023-07-29T07:44:15.537Z,100227.7
2023-07-29T07:45:21.160Z,100225.53
2023-07-29T07:46:26.882Z,100225.88
2023-07-29T07:47:32.646Z,100222.11
2023-07-29T07:48:38.297Z,100219.06
2023-07-29T07:49:43.903Z,100226.69
2023-07-29T07:50:49.554Z,100222.14
2023-07-29T07:51:55.125Z,100220.92
2023-07-29T07:53:00.808Z,100224.66
2023-07-29T07:54:06.434Z,100226.01
2023-07-29T07:55:12.072Z,100228.47
2023-07-29T07:56:17.616Z,100228.8
2023-07-29T07:57:23.216Z,100219.2
2023-07-29T07:58:28.834Z,100218.03
2023-07-29T07:59:34.483Z,100215.55
2023-07-29T08:00:40.095Z,100217.14
2023-07-29T08:01:46.068Z,100207.84
2023-07-29T08:02:52.207Z,100220.86
2023-07-29T08:03:58.305Z,100215.8
2023-07-29T08:05:04.343Z,100209.13
2023-07-29T08:06:12.579Z,100214.39
2023-07-29T08:07:18.411Z,100211.38
2023-07-29T08:08:24.356Z,100219.98
2023-07-29T08:09:30.370Z,100219.77
2023-07-29T08:10:36.226Z,100210.79
2023-07-29T08:11:41.992Z,100213.13
2023-07-29T08:12:47.757Z,100205.69
2023-07-29T08:13:53.515Z,100207.38
2023-07-29T08:14:59.288Z,100209.55
2023-07-29T08:16:05.238Z,100215.79
2023-07-29T08:17:11.521Z,100214.39
2023-07-29T08:18:17.562Z,100214.09
2023-07-29T08:19:24.520Z,100211.52
2023-07-29T08:20:30.532Z,100206.22
2023-07-29T08:21:36.309Z,100207.77
2023-07-29T08:22:42.351Z,100212.36
2023-07-29T08:23:48.117Z,100209.3
2023-07-29T08:24:53.985Z,100216.98
2023-07-29T08:25:59.965Z,100213.22
2023-07-29T08:27:05.792Z,100213.59
2023-07-29T08:28:11.667Z,100214.65
2023-07-29T08:29:17.472Z,100207.02
2023-07-29T08:30:23.531Z,100204.94
2023-07-29T08:31:29.430Z,100204.52
2023-07-29T08:32:35.622Z,100202.53
2023-07-29T08:33:41.640Z,100201.42
2023-07-29T08:34:47.537Z,100202.66
2023-07-29T08:35:53.354Z,100205.34
2023-07-29T08:36:59.104Z,100196.13
2023-07-29T08:38:04.922Z,100190.74
2023-07-29T08:39:10.797Z,100192.34
2023-07-29T08:40:16.850Z,100190.98
2023-07-29T08:41:22.651Z,100201.13
2023-07-29T08:42:28.454Z,100195.11
2023-07-29T08:43:36.848Z,100201.19
2023-07-29T08:44:42.666Z,100201.66
2023-07-29T08:45:48.461Z,100195.45
2023-07-29T08:46:54.383Z,100189.28
2023-07-29T08:48:00.422Z,100191.73
2023-07-29T08:49:06.379Z,100189.83
2023-07-29T08:50:15.460Z,100189.03
2023-07-29T08:51:21.537Z,100183.97
2023-07-29T08:52:27.449Z,100182.55
2023-07-29T08:53:33.252Z,100184.29
2023-07-29T08:54:39.106Z,100183.7
2023-07-29T08:55:44.994Z,100184.75
2023-07-29T08:56:50.695Z,100189.21
2023-07-29T08:57:56.606Z,100192.82
2023-07-29T08:59:02.206Z,100185.94
2023-07-29T09:00:07.788Z,100176.61
2023-07-29T09:01:13.383Z,100182.31
2023-07-29T09:02:19.343Z,100183.39
2023-07-29T09:03:25.190Z,100179.08
2023-07-29T09:04:30.975Z,100187.47
2023-07-29T09:05:36.529Z,100183.61
2023-07-29T09:06:42.154Z,100179.8
2023-07-29T09:07:47.729Z,100176.21
2023-07-29T09:08:53.339Z,100177.09
2023-07-29T09:09:59.001Z,100171.05
2023-07-29T09:11:04.576Z,100180.31
2023-07-29T09:12:10.155Z,100170.19
2023-07-29T09:13:15.728Z,100174.95
2023-07-29T09:14:21.340Z,100172.39
2023-07-29T09:15:26.887Z,100165.3
2023-07-29T09:16:32.580Z,100171.76
2023-07-29T09:17:38.443Z,100173.06
2023-07-29T09:18:44.045Z,100167.13
2023-07-29T09:19:49.647Z,100175.98
2023-07-29T09:20:55.365Z,100175.38
2023-07-29T09:22:01.152Z,100176.77
2023-07-29T09:23:06.884Z,100169.77
2023-07-29T09:24:12.690Z,100168.59
2023-07-29T09:25:19.525Z,100162.59
2023-07-29T09:26:25.269Z,100166.36
2023-07-29T09:27:30.964Z,100169.76
2023-07-29T09:28:36.883Z,100168.11
2023-07-29T09:29:42.702Z,100168.36
2023-07-29T09:30:48.690Z,100170.53
2023-07-29T09:31:54.530Z,100161.31
2023-07-29T09:33:00.399Z,100173.74
2023-07-29T09:34:06.250Z,100169.36
2023-07-29T09:35:11.960Z,100177.31
2023-07-29T09:36:18.129Z,100174.44
2023-07-29T09:37:24.050Z,100178.55
2023-07-29T09:38:29.765Z,100167.17
2023-07-29T09:39:35.539Z,100168.36
2023-07-29T09:40:41.385Z,100173.36
2023-07-29T09:41:49.905Z,100169.64
2023-07-29T09:42:55.792Z,100176.08
2023-07-29T09:44:01.808Z,100174.34
2023-07-29T09:45:07.656Z,100174.25
2023-07-29T09:46:13.596Z,100173.63
2023-07-29T09:47:19.715Z,100174.41
2023-07-29T09:48:25.568Z,100177.11
2023-07-29T09:49:31.447Z,100176.58
2023-07-29T09:50:37.295Z,100167.59
2023-07-29T09:51:43.216Z,100174.36
2023-07-29T09:52:48.904Z,100169.61
2023-07-29T09:53:54.592Z,100170.59
2023-07-29T09:55:00.287Z,100171.13
2023-07-29T09:56:06.018Z,100169.17
2023-07-29T09:57:12.013Z,100164.95
2023-07-29T09:58:17.911Z,100167.05
2023-07-29T09:59:23.560Z,100161.38
2023-07-29T10:00:29.402Z,100164.47
2023-07-29T10:01:35.702Z,100163.75
2023-07-29T10:02:43.292Z,100160.03
2023-07-29T10:03:50.078Z,100157.75
2023-07-29T10:04:56.091Z,100154.64
2023-07-29T10:06:01.995Z,100154.14
2023-07-29T10:07:07.991Z,100146.38
2023-07-29T10:08:13.900Z,100142.34
2023-07-29T10:09:19.774Z,100153.84
2023-07-29T10:10:25.692Z,100143.88
2023-07-29T10:11:31.555Z,100145.23
2023-07-29T10:12:37.341Z,100141.64
2023-07-29T10:13:46.035Z,100141.25
2023-07-29T10:15:11.379Z,100137.62
2023-07-29T10:16:17.134Z,100136
2023-07-29T10:17:22.871Z,100129.98
2023-07-29T10:18:28.745Z,100133.32
2023-07-29T10:19:34.481Z,100126.27
2023-07-29T10:20:40.240Z,100127.41
2023-07-29T10:21:46.028Z,100126.28
2023-07-29T10:22:51.877Z,100130.73
2023-07-29T10:23:57.710Z,100126.1
2023-07-29T10:25:03.881Z,100127.45
2023-07-29T10:26:09.824Z,100126.51
2023-07-29T10:27:15.520Z,100126.28
2023-07-29T10:28:21.593Z,100120.18
2023-07-29T10:29:27.603Z,100121.53
2023-07-29T10:30:33.713Z,100117.08
2023-07-29T10:31:39.530Z,100120.81
2023-07-29T10:32:45.622Z,100118.84
2023-07-29T10:33:51.940Z,100117.81
2023-07-29T10:34:58.062Z,100117.47
2023-07-29T10:36:04.001Z,100114.31
2023-07-29T10:37:09.811Z,100109.78
2023-07-29T10:38:15.682Z,100113.52
2023-07-29T10:39:21.549Z,100102.03
2023-07-29T10:40:27.413Z,100096.31
2023-07-29T10:41:33.277Z,100102.08
2023-07-29T10:42:39.218Z,100105.49
2023-07-29T10:43:45.050Z,100098.67
2023-07-29T10:44:50.890Z,100100.02
2023-07-29T10:46:16.183Z,100097.73
2023-07-29T10:47:22.617Z,100101.56
2023-07-29T10:48:28.629Z,100102.63
2023-07-29T10:49:34.517Z,100100.34
2023-07-29T10:50:40.388Z,100103.27
2023-07-29T10:51:51.470Z,100108.45
2023-07-29T10:52:58.917Z,100107.23
2023-07-29T10:54:04.593Z,100106.82
2023-07-29T10:55:10.462Z,100103.09
2023-07-29T10:56:16.454Z,100107.64
2023-07-29T10:57:22.245Z,100094.78
2023-07-29T10:58:28.167Z,100102.66
2023-07-29T10:59:34.132Z,100094.28
2023-07-29T11:00:39.837Z,100093.12
2023-07-29T11:01:45.849Z,100088.67
2023-07-29T11:02:51.817Z,100089.3
2023-07-29T11:03:57.630Z,100081.7
2023-07-29T11:05:03.469Z,100079.95
2023-07-29T11:06:09.457Z,100080.98
2023-07-29T11:07:15.775Z,100075.44
2023-07-29T11:08:21.519Z,100071.8
2023-07-29T11:09:27.405Z,100070.45
2023-07-29T11:10:33.631Z,100074.81
2023-07-29T11:11:39.388Z,100071.4
2023-07-29T11:12:45.505Z,100067.48
2023-07-29T11:13:51.849Z,100070.05
2023-07-29T11:14:57.772Z,100066.31
2023-07-29T11:16:03.941Z,100060.61
2023-07-29T11:17:13.383Z,100062.99
2023-07-29T11:18:19.352Z,100063.62
2023-07-29T11:19:26.572Z,100067.53
2023-07-29T11:20:32.318Z,100062.14
2023-07-29T11:21:38.024Z,100058.28
2023-07-29T11:22:43.673Z,100056.56
2023-07-29T11:23:49.403Z,100056.25
2023-07-29T11:24:55.035Z,100048.28
2023-07-29T11:26:00.795Z,100051.08
2023-07-29T11:27:06.606Z,100051.48
2023-07-29T11:28:12.440Z,100053.77
2023-07-29T11:29:18.221Z,100053.45
2023-07-29T11:30:23.856Z,100042.05
2023-07-29T11:31:29.673Z,100040.5
2023-07-29T11:32:35.709Z,100036.96
2023-07-29T11:33:41.620Z,100033.76
2023-07-29T11:34:47.296Z,100031.69
2023-07-29T11:35:53.022Z,100041.25
2023-07-29T11:36:58.696Z,100032.53
2023-07-29T11:38:04.483Z,100028.28
2023-07-29T11:39:10.188Z,100026.3
2023-07-29T11:40:15.877Z,100020.91
2023-07-29T11:41:21.600Z,100022.48
2023-07-29T11:42:27.331Z,100014.98
2023-07-29T11:43:33.097Z,100017.28
2023-07-29T11:44:39.006Z,100013.02
2023-07-29T11:45:53.508Z,100017.38
2023-07-29T11:46:59.756Z,100023.5
2023-07-29T11:48:05.846Z,100025.38
2023-07-29T11:49:11.723Z,100017.38
2023-07-29T11:50:17.764Z,100018.64
2023-07-29T11:51:23.635Z,100016.97
2023-07-29T11:52:29.501Z,100008.36
2023-07-29T11:53:35.406Z,100014.78
2023-07-29T11:54:41.223Z,100012.39
2023-07-29T11:55:47.047Z,100008.25
2023-07-29T11:56:52.854Z,100012.41
2023-07-29T11:57:58.611Z,100011.46
2023-07-29T11:59:04.528Z,100011.16
2023-07-29T12:00:10.301Z,100011.78
2023-07-29T12:01:16.138Z,100001.06
2023-07-29T12:02:22.101Z,99998.58
2023-07-29T12:03:28.160Z,100006.2
2023-07-29T12:04:34.103Z,100003.34
2023-07-29T12:05:39.985Z,100000.14
2023-07-29T12:06:45.698Z,99990.39
2023-07-29T12:07:51.384Z,99995.08
2023-07-29T12:08:57.097Z,99996.11
2023-07-29T12:10:02.959Z,99995.66
2023-07-29T12:11:08.932Z,99997.35
2023-07-29T12:12:14.847Z,99993.9
2023-07-29T12:13:20.581Z,99992.78
2023-07-29T12:14:26.421Z,99992.66
2023-07-29T12:15:32.585Z,99982.62
2023-07-29T12:16:38.943Z,99984.47
2023-07-29T12:17:45.337Z,99983.86
2023-07-29T12:18:51.607Z,99983.45
2023-07-29T12:19:57.480Z,99978.37
2023-07-29T12:21:03.354Z,99978.05
2023-07-29T12:22:09.371Z,99987.7
2023-07-29T12:23:15.197Z,99979.17
2023-07-29T12:24:21.109Z,99975.94
2023-07-29T12:25:27.098Z,99972.63
2023-07-29T12:26:33.096Z,99967.97
2023-07-29T12:27:39.283Z,99965.87
2023-07-29T12:28:45.134Z,99962.87
2023-07-29T12:29:50.833Z,99961.83
2023-07-29T12:30:56.802Z,99957.39
2023-07-29T12:32:02.747Z,99949.38
2023-07-29T12:33:08.608Z,99949.18
2023-07-29T12:34:14.604Z,99940.97
2023-07-29T12:35:20.359Z,99942.2
2023-07-29T12:36:26.093Z,99941.59
2023-07-29T12:37:31.814Z,99937.73
2023-07-29T12:38:37.601Z,99935.78
2023-07-29T12:39:43.414Z,99938.09
2023-07-29T12:40:49.233Z,99941.5
2023-07-29T12:41:55.109Z,99936.82
2023-07-29T12:43:00.865Z,99938.09
2023-07-29T12:44:06.652Z,99933.73
2023-07-29T12:45:12.478Z,99940.98
2023-07-29T12:46:18.191Z,99926.56
2023-07-29T12:47:24.008Z,99930.3
2023-07-29T12:48:29.765Z,99936.01
2023-07-29T12:49:35.638Z,99937.34
2023-07-29T12:50:41.434Z,99931.83
2023-07-29T12:51:47.121Z,99932.06
2023-07-29T12:52:52.817Z,99933
2023-07-29T12:53:58.551Z,99933.41
2023-07-29T12:55:04.408Z,99937.56
2023-07-29T12:56:10.053Z,99934.33
2023-07-29T12:57:15.822Z,99932.37
2023-07-29T12:58:21.576Z,99925.42
2023-07-29T12:59:27.351Z,99926.27
2023-07-29T13:00:33.127Z,99925.95
2023-07-29T13:01:39.186Z,99929.59